Terminal Aerodrome Forecast
Issued by NWS

Home | Current Version | Previous Version | Text Only | Print | Product List | Glossary On
Versions: 1 2 3 4 5 6 7 8 9 10 11 12 13 14 15
538
FTUS43 KABR 042320
TAFATY
TAF
KATY 042320Z 0500/0524 34010KT P6SM SCT200
     FM050200 35004KT P6SM FEW250
     FM050600 18004KT P6SM FEW250
     FM051400 21008KT P6SM SKC
     FM051800 23012KT P6SM SKC=

USA.gov is the U.S. government's official web portal to all federal, state and local government web resources and services.